Time;durP1;ratioP1;P1;durP2;ratioP2;P2;SDS_P1;SDS_P2;PMS_P1;PMS_P2;Temp;Humidity;BMP_temperature;BMP_pressure;BME280_temperature;BME280_humidity;BME280_pressure;Samples;Min_cycle;Max_cycle;Signal;HPM_P1;HPM_P2
2022/02/09 00:02:01;;;;;;;;;13.75;11.50;;;;;19.69;37.48;102472.50;5058977;28;45926;-70
2022/02/09 00:04:59;;;;;;;;;11.50;10.00;;;;;19.67;37.73;102461.16;5059454;28;45276;-66
2022/02/09 00:07:19;;;;;;;;;14.75;12.25;;;;;19.66;37.56;102462.94;5058985;28;45316;-68
2022/02/09 00:09:47;;;;;;;;;13.50;9.25;;;;;19.66;37.59;102465.56;5058840;28;45280;-66
2022/02/09 00:12:21;;;;;;;;;12.25;12.25;;;;;19.66;37.87;102465.56;5057703;28;45329;-66
2022/02/09 00:17:35;;;;;;;;;11.50;10.00;;;;;19.64;37.87;102456.84;5059460;28;45542;-68
2022/02/09 00:41:24;;;;;;;;;12.50;10.75;;;;;19.58;37.37;102444.72;5058467;28;45734;-65
2022/02/09 01:02:49;;;;;;;;;8.50;8.25;;;;;19.53;37.72;102425.53;5058840;28;45530;-64
2022/02/09 01:11:11;;;;;;;;;10.25;10.25;;;;;19.53;37.72;102427.31;5058012;28;46277;-64
2022/02/09 01:44:21;;;;;;;;;9.75;8.00;;;;;19.43;37.71;102421.44;5057865;28;45394;-66
2022/02/09 01:56:54;;;;;;;;;9.00;9.00;;;;;19.39;37.71;102415.38;5057080;28;45778;-71
2022/02/09 01:59:20;;;;;;;;;8.75;8.75;;;;;19.38;37.31;102415.44;5057214;28;45258;-62
2022/02/09 02:01:45;;;;;;;;;14.00;9.50;;;;;19.37;37.67;102419.81;5057457;28;45232;-69
2022/02/09 02:04:11;;;;;;;;;12.00;8.75;;;;;19.36;37.50;102412.81;5057509;28;45220;-67
2022/02/09 02:06:36;;;;;;;;;9.25;7.00;;;;;19.38;37.36;102415.44;5057013;28;46123;-67
2022/02/09 02:09:03;;;;;;;;;10.75;10.25;;;;;19.38;37.63;102418.91;5057436;28;45293;-73
2022/02/09 02:11:35;;;;;;;;;8.75;8.75;;;;;19.36;37.34;102412.81;5057581;28;45434;-67
2022/02/09 02:14:17;;;;;;;;;9.00;8.00;;;;;19.35;37.35;102405.00;5057578;28;45253;-71
2022/02/09 02:17:11;;;;;;;;;9.25;9.25;;;;;19.35;37.60;102405.00;5056893;28;47074;-61
2022/02/09 02:19:46;;;;;;;;;8.00;8.00;;;;;19.35;37.68;102403.22;5056412;28;45321;-61
2022/02/09 02:35:58;;;;;;;;;12.25;9.50;;;;;19.29;37.54;102377.94;5057046;28;45311;-62
2022/02/09 02:44:13;;;;;;;;;10.50;8.75;;;;;19.29;37.42;102362.16;5056706;28;45279;-64
2022/02/09 02:46:36;;;;;;;;;8.25;8.25;;;;;19.28;37.27;102365.72;5055388;28;45819;-65
2022/02/09 03:13:30;;;;;;;;;7.50;7.50;;;;;19.21;37.58;102331.75;5056045;28;45433;-65
2022/02/09 03:16:04;;;;;;;;;8.00;8.00;;;;;19.22;37.62;102328.22;5056267;28;45308;-68
2022/02/09 03:50:30;;;;;;;;;9.25;8.25;;;;;19.89;36.86;102267.63;5056364;28;45445;-68
2022/02/09 03:58:17;;;;;;;;;9.00;8.00;;;;;20.04;36.53;102284.72;5055799;28;45320;-63
2022/02/09 04:00:45;;;;;;;;;9.75;7.75;;;;;20.07;36.56;102286.41;5056023;28;45419;-61
2022/02/09 04:03:14;;;;;;;;;10.25;8.25;;;;;20.11;36.31;102274.03;5055447;28;45567;-62
2022/02/09 04:05:41;;;;;;;;;7.75;6.50;;;;;20.11;36.24;102271.41;5055624;28;45346;-61
2022/02/09 04:08:12;;;;;;;;;8.00;7.25;;;;;20.12;36.54;102270.50;5055964;28;45274;-62
2022/02/09 04:10:43;;;;;;;;;7.25;7.25;;;;;20.12;36.40;102265.22;5056150;28;45299;-65
2022/02/09 04:38:07;;;;;;;;;7.50;7.50;;;;;20.14;36.51;102260.75;5058488;28;45868;-64
2022/02/09 04:41:35;;;;;;;;;8.00;6.50;;;;;20.14;36.56;102253.72;5057306;28;45387;-62
2022/02/09 04:51:18;;;;;;;;;8.00;8.00;;;;;20.11;36.34;102259.09;5058598;28;45445;-66
2022/02/09 05:23:02;;;;;;;;;8.25;8.25;;;;;20.01;36.23;102279.53;5058066;28;45359;-67
2022/02/09 05:25:43;;;;;;;;;9.00;8.00;;;;;20.01;35.69;102281.31;5058335;28;45396;-66
2022/02/09 05:28:30;;;;;;;;;8.00;6.75;;;;;19.99;36.15;102284.03;5057764;28;46602;-65
2022/02/09 05:30:55;;;;;;;;;10.00;7.75;;;;;19.98;35.77;102287.56;5056878;28;45371;-69
2022/02/09 05:33:21;;;;;;;;;9.00;9.00;;;;;19.98;35.70;102287.56;5039805;28;45471;-65
2022/02/09 05:35:47;;;;;;;;;13.00;8.00;;;;;19.95;35.71;102285.00;5057913;28;45380;-64
2022/02/09 05:38:14;;;;;;;;;9.00;8.00;;;;;19.95;35.75;102279.75;5057961;28;45362;-69
2022/02/09 05:40:40;;;;;;;;;10.25;9.25;;;;;19.93;35.90;102284.19;5057964;28;45816;-68
2022/02/09 05:43:07;;;;;;;;;8.75;7.50;;;;;19.92;36.25;102282.47;5057607;28;45234;-67
2022/02/09 05:45:50;;;;;;;;;10.25;8.50;;;;;19.91;36.01;102278.09;5057799;28;45513;-68
2022/02/09 05:49:13;;;;;;;;;8.25;7.25;;;;;19.89;36.40;102272.06;5057485;28;45292;-65
2022/02/09 05:56:33;;;;;;;;;6.75;6.75;;;;;19.86;36.36;102272.13;5057380;28;45170;-70
2022/02/09 06:01:34;;;;;;;;;5.75;4.25;;;;;19.83;36.27;102274.81;5057312;28;45969;-71
2022/02/09 06:03:59;;;;;;;;;8.00;7.00;;;;;19.83;36.29;102274.81;5057480;28;45325;-74
2022/02/09 06:06:25;;;;;;;;;14.00;8.75;;;;;19.81;35.91;102277.50;5057442;28;45541;-71
2022/02/09 06:08:50;;;;;;;;;8.75;8.75;;;;;19.81;36.16;102276.63;5057277;28;46155;-73
2022/02/09 06:22:00;;;;;;;;;13.50;10.50;;;;;19.75;36.10;102283.81;5057320;28;45320;-62
2022/02/09 06:24:25;;;;;;;;;9.25;7.00;;;;;19.76;36.17;102292.53;5057328;28;45401;-70
2022/02/09 06:26:51;;;;;;;;;8.00;8.00;;;;;19.76;36.39;102288.16;5057410;28;45561;-71
2022/02/09 06:29:16;;;;;;;;;8.00;6.25;;;;;19.76;36.24;102295.16;5057159;28;45549;-69
2022/02/09 06:31:44;;;;;;;;;9.00;8.00;;;;;19.73;36.11;102285.59;5057138;28;45256;-65
2022/02/09 06:34:15;;;;;;;;;11.25;8.75;;;;;19.72;35.95;102289.13;5057105;28;45439;-72
2022/02/09 06:36:44;;;;;;;;;12.75;9.75;;;;;19.72;36.20;102286.50;5057520;28;45494;-68
2022/02/09 06:39:12;;;;;;;;;8.75;7.50;;;;;19.70;36.23;102275.16;5057320;28;46947;-66
2022/02/09 06:41:39;;;;;;;;;8.00;7.75;;;;;19.71;36.06;102284.78;5057462;28;45383;-70
2022/02/09 06:44:05;;;;;;;;;13.25;9.00;;;;;19.68;36.25;102282.22;5057980;28;45343;-75
2022/02/09 06:46:35;;;;;;;;;12.00;9.75;;;;;19.69;36.09;102281.31;5057173;28;45363;-70
2022/02/09 06:49:06;;;;;;;;;12.00;8.25;;;;;19.68;36.24;102278.75;5056487;28;46200;-67
2022/02/09 06:51:35;;;;;;;;;8.25;8.25;;;;;19.67;36.51;102283.16;5056668;28;45230;-67
2022/02/09 06:54:08;;;;;;;;;9.00;7.75;;;;;19.67;36.30;102287.53;5038660;28;45344;-67
2022/02/09 06:59:28;;;;;;;;;10.75;8.75;;;;;19.66;36.37;102285.81;5056586;28;45364;-70
2022/02/09 07:01:53;;;;;;;;;8.25;8.25;;;;;19.65;36.35;102284.97;5056458;28;45382;-75
2022/02/09 07:04:18;;;;;;;;;8.00;8.00;;;;;19.63;36.33;102287.63;5056347;28;45459;-75
2022/02/09 07:06:44;;;;;;;;;10.00;8.75;;;;;19.61;36.31;102294.72;5056854;28;45336;-75
2022/02/09 07:09:09;;;;;;;;;10.50;8.75;;;;;19.62;36.07;102285.06;5056139;28;45440;-74
2022/02/09 07:11:34;;;;;;;;;11.00;11.00;;;;;19.61;36.44;102283.31;5038169;28;45379;-73
2022/02/09 07:14:00;;;;;;;;;7.75;4.00;;;;;19.58;36.11;102292.16;5038164;28;45411;-67
2022/02/09 07:16:26;;;;;;;;;10.50;8.00;;;;;19.59;36.04;102296.53;5056382;28;45414;-67
2022/02/09 07:18:51;;;;;;;;;16.00;14.00;;;;;19.53;35.47;102295.84;5055389;28;47451;-69
2022/02/09 07:21:21;;;;;;;;;18.50;16.00;;;;;19.43;35.20;102303.97;5054323;28;45423;-67
2022/02/09 07:23:50;;;;;;;;;17.50;16.00;;;;;19.14;34.71;102295.09;5055817;28;45490;-74
2022/02/09 07:28:56;;;;;;;;;22.50;18.75;;;;;18.40;35.53;102299.50;5055997;28;45373;-67
2022/02/09 07:31:21;;;;;;;;;21.00;19.25;;;;;18.12;35.67;102310.63;5055954;28;45318;-66
2022/02/09 07:33:47;;;;;;;;;25.75;21.75;;;;;17.89;36.01;102309.31;5056530;28;45391;-72
2022/02/09 07:36:16;;;;;;;;;19.75;18.00;;;;;17.67;36.02;102308.03;5056196;28;45339;-67
2022/02/09 07:38:43;;;;;;;;;21.75;20.50;;;;;17.50;36.48;102308.34;5038205;28;46606;-70
2022/02/09 07:41:08;;;;;;;;;24.00;22.75;;;;;17.33;36.21;102306.88;5055931;28;46064;-71
2022/02/09 07:54:00;;;;;;;;;24.75;19.00;;;;;16.67;37.53;102291.38;5058784;28;45328;-68
2022/02/09 07:56:28;;;;;;;;;23.75;20.25;;;;;16.61;37.79;102295.84;5058916;28;45415;-69
2022/02/09 07:58:54;;;;;;;;;23.75;18.75;;;;;16.57;38.43;102284.56;5058970;28;46322;-70
2022/02/09 08:01:20;;;;;;;;;21.50;18.75;;;;;16.58;38.39;102288.91;5041106;28;45770;-68
2022/02/09 08:03:45;;;;;;;;;22.75;20.50;;;;;16.56;38.31;102280.22;5059559;28;45383;-68
2022/02/09 08:06:11;;;;;;;;;22.50;19.50;;;;;16.56;38.21;102284.56;5059266;28;45613;-66
2022/02/09 08:08:39;;;;;;;;;25.00;23.50;;;;;16.49;38.13;102283.78;5058889;28;45473;-67
2022/02/09 08:29:45;;;;;;;;;28.25;21.75;;;;;16.26;38.61;102264.06;5038906;28;45546;-68
2022/02/09 08:34:39;;;;;;;;;22.00;20.50;;;;;16.21;38.67;102268.50;5058932;28;45383;-67
2022/02/09 08:37:06;;;;;;;;;25.00;21.75;;;;;16.18;38.64;102265.94;5058873;28;45520;-70
2022/02/09 08:39:32;;;;;;;;;23.50;21.00;;;;;16.16;38.60;102267.69;5040394;28;46257;-67
2022/02/09 08:41:58;;;;;;;;;28.75;25.75;;;;;16.14;38.47;102270.34;5058473;28;45285;-65
2022/02/09 08:44:24;;;;;;;;;24.25;23.50;;;;;16.14;38.63;102265.13;5058597;28;45407;-67
2022/02/09 08:46:50;;;;;;;;;25.00;23.00;;;;;16.11;38.46;102265.16;5059091;28;45269;-68
2022/02/09 08:49:15;;;;;;;;;22.00;21.50;;;;;16.10;38.59;102273.03;5058282;28;45534;-68
2022/02/09 08:51:41;;;;;;;;;25.25;23.50;;;;;16.12;38.58;102263.41;5058330;28;45274;-67
2022/02/09 08:54:06;;;;;;;;;33.25;24.75;;;;;16.08;38.59;102258.22;5058631;28;45432;-71
2022/02/09 08:56:32;;;;;;;;;25.00;24.00;;;;;16.05;38.51;102254.78;5057112;28;45305;-67
2022/02/09 08:58:58;;;;;;;;;22.75;21.75;;;;;16.04;38.42;102260.91;5058044;28;47146;-67
2022/02/09 09:01:34;;;;;;;;;25.50;24.50;;;;;16.01;38.52;102253.97;5058105;28;45962;-67
2022/02/09 09:04:04;;;;;;;;;25.50;23.50;;;;;15.97;38.49;102252.25;5039865;28;45375;-69
2022/02/09 09:06:31;;;;;;;;;23.25;21.50;;;;;15.97;38.42;102244.41;5058393;28;45241;-67
2022/02/09 09:58:11;;;;;;;;;14.25;13.75;;;;;17.77;37.50;102199.44;5057606;28;45363;-61
2022/02/09 10:34:10;;;;;;;;;12.50;11.50;;;;;18.39;36.84;102208.53;5057172;28;45186;-65
2022/02/09 10:36:52;;;;;;;;;12.25;11.00;;;;;18.48;36.74;102218.78;5038219;28;46574;-67
2022/02/09 10:39:30;;;;;;;;;12.75;12.50;;;;;18.50;36.67;102219.63;5038155;28;45919;-63
2022/02/09 10:42:01;;;;;;;;;12.25;11.50;;;;;18.52;36.36;102215.19;5056825;28;45448;-68
2022/02/09 10:44:45;;;;;;;;;15.75;13.00;;;;;18.56;36.81;102212.50;5054732;28;45616;-65
2022/02/09 10:47:28;;;;;;;;;12.50;12.00;;;;;18.56;36.56;102209.88;5055968;28;47347;-66
2022/02/09 10:50:06;;;;;;;;;11.00;11.00;;;;;18.58;36.63;102206.31;5056720;28;45896;-65
2022/02/09 10:52:39;;;;;;;;;12.00;12.00;;;;;18.57;36.92;102203.72;5056347;28;45430;-62
2022/02/09 10:55:05;;;;;;;;;15.50;13.00;;;;;18.60;36.71;102196.63;5056734;28;45504;-64
2022/02/09 10:57:30;;;;;;;;;13.25;12.00;;;;;18.62;36.46;102197.47;5056178;28;45965;-62
2022/02/09 10:59:56;;;;;;;;;13.50;13.00;;;;;18.63;36.52;102193.06;5056706;28;45440;-63
2022/02/09 11:02:26;;;;;;;;;11.25;10.75;;;;;18.66;36.66;102190.38;5056487;28;45312;-62
2022/02/09 11:04:52;;;;;;;;;14.75;13.75;;;;;18.68;36.57;102189.41;5056618;28;45661;-63
2022/02/09 11:07:18;;;;;;;;;14.25;13.00;;;;;18.69;36.87;102182.38;5056263;28;46347;-61
2022/02/09 11:09:43;;;;;;;;;11.50;11.50;;;;;18.70;36.75;102179.75;5056341;28;45430;-58
2022/02/09 11:12:09;;;;;;;;;15.50;12.50;;;;;18.73;36.55;102177.94;5056273;28;45458;-61
2022/02/09 11:14:34;;;;;;;;;16.25;13.75;;;;;18.72;36.83;102179.69;5056383;28;45613;-62
2022/02/09 11:17:04;;;;;;;;;13.75;10.00;;;;;18.72;37.99;102187.56;5055910;28;45444;-61
2022/02/09 11:19:35;;;;;;;;;13.00;11.50;;;;;18.70;38.04;102177.13;5056257;28;45379;-60
2022/02/09 11:22:12;;;;;;;;;12.00;11.00;;;;;18.69;38.28;102170.13;5056243;28;45469;-61
2022/02/09 11:24:45;;;;;;;;;10.00;9.00;;;;;18.67;38.36;102168.47;5056436;28;45312;-60
2022/02/09 11:27:36;;;;;;;;;12.00;12.00;;;;;18.63;38.33;102167.66;5056768;28;47761;-59
2022/02/09 11:30:41;;;;;;;;;12.50;12.50;;;;;18.63;38.06;102162.41;5059513;28;45839;-60
2022/02/09 11:33:13;;;;;;;;;14.50;13.00;;;;;18.63;38.65;102156.28;5058967;28;45304;-61
2022/02/09 11:36:31;;;;;;;;;13.25;11.25;;;;;18.68;38.69;102150.03;5059804;28;45256;-60
2022/02/09 11:39:19;;;;;;;;;14.00;11.75;;;;;18.73;39.13;102149.91;5059973;28;46265;-61
2022/02/09 11:42:09;;;;;;;;;12.50;12.25;;;;;18.80;39.22;102143.56;5059119;28;45872;-61
2022/02/09 11:44:58;;;;;;;;;10.75;10.75;;;;;18.87;38.83;102133.75;5059686;28;45229;-60
2022/02/09 12:01:13;;;;;;;;;13.25;11.00;;;;;19.28;37.45;102125.63;5058939;28;46154;-62
2022/02/09 12:09:41;;;;;;;;;13.75;9.00;;;;;19.47;37.51;102121.53;5059253;28;45323;-61
2022/02/09 12:12:16;;;;;;;;;11.75;10.25;;;;;19.53;37.45;102119.66;5058869;28;46198;-61
2022/02/09 12:17:33;;;;;;;;;12.50;11.25;;;;;19.62;37.21;102114.09;5058774;28;45229;-62
2022/02/09 12:23:34;;;;;;;;;14.50;13.50;;;;;19.73;37.25;102109.34;5016485;28;45583;-62
2022/02/09 12:26:00;;;;;;;;;11.50;11.50;;;;;19.77;36.99;102104.84;5016167;28;45348;-60
2022/02/09 12:28:35;;;;;;;;;13.00;8.75;;;;;19.84;37.02;102100.25;5025020;28;45322;-60
2022/02/09 12:31:14;;;;;;;;;12.25;10.00;;;;;19.86;36.99;102104.59;5059374;28;45228;-62
2022/02/09 12:33:48;;;;;;;;;15.75;10.75;;;;;19.91;36.97;102096.53;5058481;28;45467;-65
2022/02/09 12:36:13;;;;;;;;;10.25;9.25;;;;;19.92;36.64;102099.16;5058732;28;45920;-61
2022/02/09 12:38:39;;;;;;;;;11.25;11.25;;;;;19.95;36.55;102092.91;5057940;28;45214;-61
2022/02/09 12:41:31;;;;;;;;;10.50;10.50;;;;;19.96;36.54;102094.63;5058746;28;45438;-62
2022/02/09 12:44:02;;;;;;;;;12.50;10.00;;;;;19.97;36.67;102091.09;5054090;28;46220;-60
2022/02/09 12:46:31;;;;;;;;;6.25;6.00;;;;;19.99;36.44;102077.88;5058746;28;45865;-61
2022/02/09 12:49:17;;;;;;;;;11.00;9.25;;;;;19.99;36.44;102075.25;5058384;28;45329;-63
2022/02/09 12:51:45;;;;;;;;;12.00;10.75;;;;;20.00;36.81;102069.06;5058591;28;45296;-62
2022/02/09 12:54:14;;;;;;;;;11.75;10.75;;;;;20.02;36.90;102077.78;5040213;28;46422;-63
2022/02/09 12:56:52;;;;;;;;;13.00;13.00;;;;;20.01;36.66;102066.38;5058187;28;45383;-66
2022/02/09 12:59:19;;;;;;;;;9.00;9.00;;;;;20.04;36.89;102073.34;5058384;28;45268;-67
2022/02/09 13:01:52;;;;;;;;;11.25;9.75;;;;;20.04;36.44;102070.69;5058337;28;45629;-68
2022/02/09 13:04:38;;;;;;;;;12.50;10.00;;;;;20.03;36.72;102056.66;5058033;28;46596;-69
2022/02/09 13:07:13;;;;;;;;;12.00;10.50;;;;;20.04;37.14;102061.03;5058090;28;45434;-68
2022/02/09 13:09:45;;;;;;;;;13.00;10.00;;;;;20.03;36.78;102056.66;5058573;28;45800;-66
2022/02/09 13:12:11;;;;;;;;;12.25;12.25;;;;;20.03;36.32;102053.19;5058440;28;45217;-66
2022/02/09 13:14:42;;;;;;;;;11.50;9.25;;;;;20.03;36.98;102054.03;5057928;28;45923;-66
2022/02/09 13:17:26;;;;;;;;;13.25;10.50;;;;;20.03;36.41;102051.41;5057805;28;45335;-67
2022/02/09 13:20:31;;;;;;;;;13.50;10.75;;;;;20.02;36.63;102036.53;5057847;28;45278;-66
2022/02/09 14:48:48;;;;;;;;;8.50;8.00;;;;;20.75;35.45;101962.84;5056695;28;45338;-67
2022/02/09 14:53:58;;;;;;;;;9.50;8.50;;;;;20.77;35.48;101954.91;5056395;28;45873;-67
2022/02/09 14:56:40;;;;;;;;;10.00;10.00;;;;;20.79;36.01;101958.31;5056490;28;46234;-67
2022/02/09 14:59:08;;;;;;;;;7.75;7.75;;;;;20.78;35.67;101956.63;5056554;28;45405;-61
2022/02/09 15:01:44;;;;;;;;;12.25;9.75;;;;;20.79;36.25;101947.78;5056417;28;45226;-64
2022/02/09 15:14:22;;;;;;;;;9.25;9.00;;;;;20.75;35.89;101936.50;5038645;28;46151;-64
2022/02/09 15:17:02;;;;;;;;;8.50;8.50;;;;;20.76;36.48;101937.38;5055978;28;45862;-65
2022/02/09 15:22:10;;;;;;;;;10.00;10.00;;;;;20.77;36.14;101933.84;5056438;28;45546;-63
2022/02/09 15:24:40;;;;;;;;;7.75;7.75;;;;;20.76;36.52;101926.84;5056078;28;45274;-65
2022/02/09 15:27:16;;;;;;;;;10.00;8.25;;;;;20.72;35.99;101926.06;5056312;28;45907;-63
2022/02/09 15:29:42;;;;;;;;;10.25;9.00;;;;;20.69;36.64;101916.50;5038018;28;45348;-64
2022/02/09 15:34:49;;;;;;;;;8.25;5.75;;;;;20.72;36.10;101930.47;5055915;28;45374;-65
2022/02/09 15:39:53;;;;;;;;;8.25;7.00;;;;;20.71;35.90;101929.63;5056125;28;45308;-64
2022/02/09 16:09:37;;;;;;;;;12.00;8.75;;;;;20.53;35.96;101887.25;5022980;28;45691;-60
2022/02/09 16:23:01;;;;;;;;;10.00;9.25;;;;;20.47;36.70;101871.72;5058691;28;45420;-64
2022/02/09 16:36:46;;;;;;;;;9.75;8.00;;;;;20.50;36.66;101873.34;5058202;28;45273;-59
2022/02/09 16:46:50;;;;;;;;;8.25;7.00;;;;;20.47;36.81;101878.72;5058352;28;45514;-62
2022/02/09 16:49:27;;;;;;;;;10.00;7.50;;;;;20.46;36.38;101872.63;5058207;28;46586;-60
2022/02/09 16:52:00;;;;;;;;;10.25;7.75;;;;;20.46;36.60;101874.38;5057919;28;45905;-62
2022/02/09 17:21:13;;;;;;;;;3.75;3.00;;;;;20.39;36.97;101858.84;5057788;28;45921;-55
2022/02/09 17:23:39;;;;;;;;;9.50;8.25;;;;;20.41;37.33;101852.66;5057785;28;45367;-57
2022/02/09 17:26:06;;;;;;;;;10.25;7.00;;;;;20.39;37.14;101850.94;5039027;28;45331;-56
2022/02/09 17:28:31;;;;;;;;;6.25;6.25;;;;;20.41;37.30;101864.03;5057965;28;45328;-59
2022/02/09 17:33:57;;;;;;;;;8.25;7.25;;;;;20.40;36.67;101857.03;5057362;28;45443;-56
2022/02/09 17:36:39;;;;;;;;;7.50;7.50;;;;;20.39;36.82;101845.66;5038924;28;45424;-60
2022/02/09 17:58:07;;;;;;;;;7.75;7.50;;;;;20.43;36.86;101856.09;5056677;28;45882;-62
2022/02/09 18:00:32;;;;;;;;;8.50;7.00;;;;;20.41;37.33;101861.41;5057274;28;45307;-54
2022/02/09 18:02:58;;;;;;;;;9.00;8.00;;;;;20.43;36.66;101864.00;5056840;28;45540;-53
2022/02/09 18:07:59;;;;;;;;;9.25;7.00;;;;;20.38;37.56;101870.28;5056605;28;45411;-51
2022/02/09 18:31:22;;;;;;;;;6.75;6.75;;;;;20.36;37.37;101860.72;5039231;28;45432;-54
2022/02/09 18:42:45;;;;;;;;;7.00;6.00;;;;;20.34;38.04;101857.28;5056729;28;45440;-54
2022/02/09 19:03:40;;;;;;;;;7.25;7.25;;;;;20.34;38.03;101846.75;5011665;28;45454;-52
2022/02/09 19:06:19;;;;;;;;;7.75;7.75;;;;;20.33;38.03;101832.75;5055845;28;46513;-50
2022/02/09 19:30:04;;;;;;;;;8.00;8.00;;;;;20.26;37.25;101804.09;5054962;28;45847;-56
2022/02/09 19:32:55;;;;;;;;;9.75;9.00;;;;;20.26;37.81;101811.97;5054858;28;45356;-56
2022/02/09 19:48:23;;;;;;;;;8.25;8.25;;;;;20.21;37.45;101799.00;5055741;28;45240;-59
2022/02/09 19:53:40;;;;;;;;;13.50;10.00;;;;;20.20;38.33;101805.19;5059671;28;45313;-59
2022/02/09 19:56:11;;;;;;;;;6.75;4.75;;;;;20.18;37.50;101793.84;5059551;28;45245;-62
2022/02/09 19:58:43;;;;;;;;;11.00;9.00;;;;;20.18;38.17;101801.75;5059284;28;46196;-60
2022/02/09 20:01:13;;;;;;;;;10.50;10.00;;;;;20.18;37.85;101791.22;5059362;28;45865;-61
2022/02/09 20:03:39;;;;;;;;;11.00;9.00;;;;;20.17;38.38;101798.25;5059403;28;45158;-61
2022/02/09 20:06:07;;;;;;;;;9.00;9.00;;;;;20.17;38.23;101792.13;5059355;28;45446;-64
2022/02/09 20:08:35;;;;;;;;;10.25;8.25;;;;;20.17;38.09;101789.50;5059100;28;46174;-65
2022/02/09 20:11:01;;;;;;;;;11.75;9.50;;;;;20.17;38.11;101795.63;5059019;28;45434;-60
2022/02/09 20:13:26;;;;;;;;;8.25;8.25;;;;;20.15;37.73;101791.31;5059208;28;45344;-58
2022/02/09 20:15:52;;;;;;;;;10.25;9.50;;;;;20.13;38.14;101782.63;5059019;28;45641;-56
2022/02/09 20:18:17;;;;;;;;;11.75;10.00;;;;;20.16;38.41;101790.41;5059222;28;46714;-59
2022/02/09 20:20:43;;;;;;;;;12.75;8.25;;;;;20.15;38.50;101783.44;5040756;28;45339;-58
2022/02/09 20:23:10;;;;;;;;;12.25;9.75;;;;;20.14;38.54;101787.84;5059109;28;45300;-59
2022/02/09 20:25:36;;;;;;;;;11.50;10.50;;;;;20.13;38.49;101780.00;5058981;28;45344;-62
2022/02/09 20:28:01;;;;;;;;;11.00;8.50;;;;;20.10;38.03;101780.13;5056835;28;45660;-65
2022/02/09 20:30:34;;;;;;;;;10.25;8.50;;;;;20.10;37.97;101790.66;5057775;28;45329;-63
2022/02/09 20:33:03;;;;;;;;;13.75;12.00;;;;;20.06;38.28;101780.25;5058787;28;45222;-60
2022/02/09 20:35:28;;;;;;;;;10.00;9.00;;;;;20.05;38.52;101782.94;5058585;28;45529;-61
2022/02/09 20:37:55;;;;;;;;;11.75;10.25;;;;;20.06;38.90;101788.13;5040162;28;47732;-60
2022/02/09 20:40:48;;;;;;;;;12.00;9.25;;;;;20.03;39.02;101782.97;5058113;28;45342;-60
2022/02/09 20:43:09;;;;;;;;;11.25;9.75;;;;;20.05;38.88;101789.06;5057291;28;45527;-60
2022/02/09 20:45:38;;;;;;;;;13.75;10.25;;;;;20.04;38.63;101783.84;5058457;28;45563;-64
2022/02/09 20:48:13;;;;;;;;;12.25;12.25;;;;;20.00;38.74;101775.22;5058435;28;46183;-63
2022/02/09 20:50:40;;;;;;;;;16.00;12.25;;;;;20.04;38.80;101775.97;5058106;28;45406;-61
2022/02/09 20:53:05;;;;;;;;;14.75;11.75;;;;;20.04;38.46;101787.31;5058575;28;44819;-63
2022/02/09 20:55:30;;;;;;;;;14.00;12.00;;;;;20.04;38.42;101784.69;5058215;28;45329;-59
2022/02/09 20:57:57;;;;;;;;;12.50;11.50;;;;;20.03;38.65;101790.88;5058010;28;45359;-60
2022/02/09 21:00:45;;;;;;;;;14.00;9.75;;;;;20.04;39.21;101784.69;5057185;28;45827;-55
2022/02/09 21:26:30;;;;;;;;;13.50;12.75;;;;;19.95;39.01;101777.16;5057793;28;45435;-60
2022/02/09 21:55:08;;;;;;;;;13.25;13.25;;;;;19.73;39.55;101779.72;5057902;28;45312;-61
2022/02/09 21:57:52;;;;;;;;;15.00;14.25;;;;;19.76;39.88;101798.00;5056489;28;45532;-63
2022/02/09 22:27:53;;;;;;;;;16.25;12.25;;;;;19.63;40.17;101777.41;5056895;28;45319;-66
2022/02/09 22:56:50;;;;;;;;;17.25;17.00;;;;;19.55;40.40;101749.69;5056631;28;45555;-61
2022/02/09 22:59:32;;;;;;;;;15.75;12.75;;;;;19.56;40.38;101746.16;5056548;28;45177;-63
2022/02/09 23:02:03;;;;;;;;;12.75;12.75;;;;;19.55;40.54;101733.91;5056834;28;45384;-64
2022/02/09 23:04:58;;;;;;;;;17.75;16.25;;;;;19.53;40.48;101738.38;5056375;28;45544;-60
2022/02/09 23:07:48;;;;;;;;;16.50;15.00;;;;;19.52;40.43;101742.75;5056792;28;45213;-59
2022/02/09 23:13:52;;;;;;;;;18.00;15.50;;;;;19.51;40.02;101734.94;5055465;28;45423;-61
2022/02/09 23:24:25;;;;;;;;;18.50;16.50;;;;;19.46;40.32;101738.56;5059973;28;45296;-62
2022/02/09 23:57:26;;;;;;;;;16.00;15.00;;;;;19.42;40.00;101726.47;5059917;28;45370;-59
